createdAt,value
2022-12-22T00:03:52.797Z,43.00
2022-12-22T00:06:38.403Z,48.17
2022-12-22T00:09:23.761Z,43.97
2022-12-22T00:12:09.330Z,49.22
2022-12-22T00:14:54.893Z,55.25
2022-12-22T00:17:49.265Z,50.22
2022-12-22T00:20:38.428Z,48.70
2022-12-22T00:23:23.860Z,56.70
2022-12-22T00:26:09.080Z,56.58
2022-12-22T00:28:54.835Z,50.67
2022-12-22T00:31:41.250Z,47.30
2022-12-22T00:34:39.700Z,58.70
2022-12-22T00:37:30.714Z,48.58
2022-12-22T00:40:17.649Z,54.42
2022-12-22T00:43:03.244Z,55.03
2022-12-22T00:45:49.180Z,48.50
2022-12-22T00:48:42.004Z,49.00
2022-12-22T00:51:28.546Z,48.78
2022-12-22T00:54:14.728Z,46.55
2022-12-22T00:57:00.903Z,54.65
2022-12-22T00:59:46.826Z,51.05
2022-12-22T01:02:32.161Z,51.58
2022-12-22T01:05:17.509Z,47.88
2022-12-22T01:08:02.985Z,47.15
2022-12-22T01:10:48.382Z,45.35
2022-12-22T01:13:34.669Z,48.47
2022-12-22T01:16:20.149Z,52.53
2022-12-22T01:19:05.903Z,46.75
2022-12-22T01:21:51.109Z,50.45
2022-12-22T01:24:37.783Z,44.35
2022-12-22T01:27:23.719Z,50.03
2022-12-22T01:30:09.248Z,47.58
2022-12-22T01:32:54.744Z,55.13
2022-12-22T01:35:45.573Z,51.10
2022-12-22T01:38:30.925Z,44.70
2022-12-22T01:41:18.670Z,45.75
2022-12-22T01:44:04.297Z,49.40
2022-12-22T01:46:52.559Z,53.22
2022-12-22T01:49:43.107Z,48.95
2022-12-22T01:52:31.036Z,52.90
2022-12-22T01:55:20.957Z,51.22
2022-12-22T01:58:06.546Z,54.33
2022-12-22T02:00:51.853Z,46.88
2022-12-22T02:03:40.502Z,49.78
2022-12-22T02:06:56.235Z,48.47
2022-12-22T02:10:01.622Z,54.65
2022-12-22T02:13:09.288Z,46.95
2022-12-22T02:16:17.255Z,45.28
2022-12-22T02:19:50.771Z,42.50
2022-12-22T02:23:05.706Z,45.92
2022-12-22T02:26:00.519Z,47.67
2022-12-22T02:28:46.306Z,47.28
2022-12-22T02:31:31.675Z,46.78
2022-12-22T02:34:17.314Z,49.60
2022-12-22T02:37:22.947Z,37.30
2022-12-22T02:40:21.624Z,46.92
2022-12-22T02:43:32.306Z,46.90
2022-12-22T02:46:40.099Z,48.50
2022-12-22T02:49:58.077Z,45.83
2022-12-22T02:52:49.560Z,47.70
2022-12-22T02:55:35.794Z,45.70
2022-12-22T02:58:21.228Z,47.95
2022-12-22T03:01:06.927Z,55.40
2022-12-22T03:03:52.261Z,46.95
2022-12-22T03:06:37.773Z,48.28
2022-12-22T03:09:22.977Z,50.72
2022-12-22T03:12:08.737Z,42.72
2022-12-22T03:14:54.085Z,47.15
2022-12-22T03:17:39.374Z,45.78
2022-12-22T03:20:25.366Z,48.67
2022-12-22T03:23:10.889Z,50.60
2022-12-22T03:25:53.493Z,53.75
2022-12-22T03:28:28.541Z,46.45
2022-12-22T03:31:01.734Z,46.90
2022-12-22T03:33:29.714Z,47.22
2022-12-22T03:35:56.751Z,48.10
2022-12-22T03:38:23.500Z,50.85
2022-12-22T03:40:50.329Z,42.55
2022-12-22T03:43:36.417Z,38.25
2022-12-22T03:46:15.333Z,40.28
2022-12-22T03:48:42.607Z,47.17
2022-12-22T03:51:09.393Z,46.03
2022-12-22T03:53:36.185Z,49.55
2022-12-22T03:56:07.717Z,51.83
2022-12-22T03:58:35.141Z,44.33
2022-12-22T04:01:08.322Z,43.95
2022-12-22T04:03:35.159Z,51.83
2022-12-22T04:06:01.958Z,43.83
2022-12-22T04:08:28.776Z,38.53
2022-12-22T04:11:14.240Z,44.13
2022-12-22T04:13:41.033Z,47.58
2022-12-22T04:16:07.825Z,45.72
2022-12-22T04:18:34.583Z,39.03
2022-12-22T04:21:01.349Z,41.17
2022-12-22T04:23:28.125Z,47.80
2022-12-22T04:25:55.024Z,44.72
2022-12-22T04:28:22.113Z,41.40
2022-12-22T04:30:52.171Z,39.72
2022-12-22T04:33:18.927Z,46.20
2022-12-22T04:35:45.674Z,52.53
2022-12-22T04:38:12.494Z,46.38
2022-12-22T04:40:39.208Z,46.92
2022-12-22T04:43:06.337Z,46.50
2022-12-22T04:45:33.127Z,53.08
2022-12-22T04:47:59.972Z,56.17
2022-12-22T04:50:26.869Z,41.78
2022-12-22T04:52:53.635Z,50.33
2022-12-22T04:55:20.524Z,53.05
2022-12-22T04:57:47.294Z,46.17
2022-12-22T05:00:15.042Z,43.85
2022-12-22T05:02:41.782Z,50.90
2022-12-22T05:05:09.083Z,57.47
2022-12-22T05:07:35.851Z,57.55
2022-12-22T05:10:04.286Z,52.45
2022-12-22T05:12:49.469Z,51.92
2022-12-22T05:15:16.362Z,44.50
2022-12-22T05:17:43.041Z,44.05
2022-12-22T05:20:10.056Z,42.38
2022-12-22T05:22:36.882Z,54.75
2022-12-22T05:25:03.865Z,53.00
2022-12-22T05:27:30.582Z,45.30
2022-12-22T05:29:57.272Z,45.60
2022-12-22T05:32:24.078Z,51.60
2022-12-22T05:34:50.808Z,50.97
2022-12-22T05:37:17.533Z,56.25
2022-12-22T05:39:44.379Z,57.40
2022-12-22T05:42:11.107Z,49.80
2022-12-22T05:44:37.902Z,47.40
2022-12-22T05:47:04.662Z,51.78
2022-12-22T05:49:31.473Z,49.72
2022-12-22T05:51:58.195Z,45.75
2022-12-22T05:54:24.944Z,43.67
2022-12-22T05:56:51.731Z,49.22
2022-12-22T05:59:18.502Z,54.42
2022-12-22T06:01:45.300Z,47.15
2022-12-22T06:04:12.327Z,48.65
2022-12-22T06:06:39.216Z,41.80
2022-12-22T06:09:05.948Z,52.10
2022-12-22T06:11:32.748Z,56.72
2022-12-22T06:13:59.513Z,43.92
2022-12-22T06:16:26.253Z,48.50
2022-12-22T06:18:53.101Z,43.72
2022-12-22T06:21:19.835Z,53.28
2022-12-22T06:23:46.976Z,53.20
2022-12-22T06:26:13.760Z,61.53
2022-12-22T06:28:40.558Z,65.53
2022-12-22T06:31:07.338Z,57.53
2022-12-22T06:33:34.770Z,67.13
2022-12-22T06:36:05.556Z,65.28
2022-12-22T06:38:32.453Z,72.72
2022-12-22T06:40:59.208Z,68.65
2022-12-22T06:43:26.371Z,72.40
2022-12-22T06:45:53.774Z,75.85
2022-12-22T06:48:20.793Z,75.90
2022-12-22T06:50:47.903Z,65.40
2022-12-22T06:53:14.817Z,75.78
2022-12-22T06:55:41.624Z,67.00
2022-12-22T06:58:08.426Z,74.90
2022-12-22T07:00:35.567Z,76.70
2022-12-22T07:03:02.442Z,69.05
2022-12-22T07:05:32.041Z,71.18
2022-12-22T07:08:05.968Z,79.35
2022-12-22T07:10:53.650Z,65.95
2022-12-22T07:13:20.578Z,65.38
2022-12-22T07:15:53.885Z,71.95
2022-12-22T07:18:26.580Z,64.70
2022-12-22T07:20:54.617Z,64.78
2022-12-22T07:23:21.378Z,58.50
2022-12-22T07:25:48.133Z,77.10
2022-12-22T07:28:20.180Z,65.53
2022-12-22T07:30:47.885Z,68.88
2022-12-22T07:33:14.741Z,64.88
2022-12-22T07:35:41.506Z,66.63
2022-12-22T07:38:08.345Z,73.30
2022-12-22T07:40:39.591Z,65.65
2022-12-22T07:43:08.814Z,64.35
2022-12-22T07:45:35.612Z,64.53
2022-12-22T07:48:22.869Z,67.70
2022-12-22T07:50:49.638Z,66.53
2022-12-22T07:53:16.355Z,70.95
2022-12-22T07:55:43.094Z,61.55
2022-12-22T07:58:09.847Z,54.88
2022-12-22T08:00:36.588Z,54.75
2022-12-22T08:03:03.422Z,56.55
2022-12-22T08:05:30.332Z,49.42
2022-12-22T08:07:57.037Z,55.30
2022-12-22T08:10:24.177Z,58.90
2022-12-22T08:12:51.108Z,49.00
2022-12-22T08:15:18.069Z,42.60
2022-12-22T08:17:44.893Z,43.75
2022-12-22T08:20:11.868Z,41.50
2022-12-22T08:22:38.661Z,39.53
2022-12-22T08:25:05.662Z,43.88
2022-12-22T08:27:44.459Z,44.70
2022-12-22T08:30:12.536Z,47.53
2022-12-22T08:32:40.939Z,45.83
2022-12-22T08:35:09.408Z,44.10
2022-12-22T08:37:41.627Z,45.72
2022-12-22T08:40:12.971Z,49.92
2022-12-22T08:42:40.855Z,41.30
2022-12-22T08:45:09.487Z,42.25
2022-12-22T08:47:36.471Z,44.20
2022-12-22T08:50:04.197Z,48.75
2022-12-22T08:52:31.721Z,40.65
2022-12-22T08:54:58.561Z,42.10
2022-12-22T08:57:25.331Z,41.40
2022-12-22T08:59:52.117Z,37.53
2022-12-22T09:02:18.936Z,45.72
2022-12-22T09:04:45.817Z,41.65
2022-12-22T09:07:12.765Z,43.03
2022-12-22T09:09:39.639Z,45.33
2022-12-22T09:12:06.908Z,39.90
2022-12-22T09:14:34.089Z,43.67
2022-12-22T09:17:01.069Z,45.80
2022-12-22T09:19:28.236Z,38.47
2022-12-22T09:21:55.137Z,42.58
2022-12-22T09:24:22.070Z,44.67
2022-12-22T09:26:48.883Z,43.58
2022-12-22T09:29:16.005Z,44.35
2022-12-22T09:31:43.334Z,41.25
2022-12-22T09:34:15.336Z,41.58
2022-12-22T09:36:45.122Z,50.30
2022-12-22T09:39:12.051Z,45.30
2022-12-22T09:41:51.540Z,49.33
2022-12-22T09:44:21.007Z,46.10
2022-12-22T09:46:48.028Z,47.53
2022-12-22T09:49:16.924Z,44.70
2022-12-22T09:51:49.128Z,43.70
2022-12-22T09:54:16.406Z,41.17
2022-12-22T09:56:43.468Z,43.03
2022-12-22T09:59:15.585Z,41.67
2022-12-22T10:02:00.981Z,40.67
2022-12-22T10:04:57.364Z,41.00
2022-12-22T10:07:38.604Z,42.72
2022-12-22T10:10:15.893Z,41.22
2022-12-22T10:12:42.812Z,36.05
2022-12-22T10:15:18.348Z,36.47
2022-12-22T10:17:54.384Z,41.05
2022-12-22T10:20:27.879Z,37.08
2022-12-22T10:22:59.242Z,37.88
2022-12-22T10:26:25.970Z,37.97
2022-12-22T10:28:29.174Z,38.88
2022-12-22T10:31:14.336Z,33.15
2022-12-22T10:33:46.761Z,41.75
2022-12-22T10:36:16.507Z,37.15
2022-12-22T10:39:08.973Z,42.17
2022-12-22T10:41:40.371Z,41.33
2022-12-22T10:44:16.273Z,40.60
2022-12-22T10:46:47.092Z,43.33
2022-12-22T10:49:16.988Z,46.63
2022-12-22T10:51:47.404Z,48.22
2022-12-22T10:54:31.434Z,45.15
2022-12-22T10:57:07.741Z,42.25
2022-12-22T10:59:46.609Z,51.38
2022-12-22T11:02:28.077Z,46.63
2022-12-22T11:05:02.158Z,43.42
2022-12-22T11:07:32.037Z,45.95
2022-12-22T11:09:58.843Z,43.83
2022-12-22T11:12:40.609Z,51.30
2022-12-22T11:15:29.826Z,49.70
2022-12-22T11:18:19.873Z,47.63
2022-12-22T11:21:05.487Z,43.25
2022-12-22T11:23:53.384Z,42.63
2022-12-22T11:26:44.759Z,51.40
2022-12-22T11:29:41.828Z,38.78
2022-12-22T11:32:51.901Z,44.42
2022-12-22T11:35:56.319Z,49.65
2022-12-22T11:38:46.861Z,44.88
2022-12-22T11:41:42.868Z,46.13
2022-12-22T11:44:28.737Z,42.15
2022-12-22T11:47:40.225Z,36.53
2022-12-22T11:51:01.979Z,44.20
2022-12-22T11:53:37.149Z,44.45
2022-12-22T11:56:22.501Z,37.45
2022-12-22T11:59:35.099Z,41.15
2022-12-22T12:02:31.880Z,41.70
2022-12-22T12:05:08.024Z,40.55
2022-12-22T12:07:37.776Z,43.25
2022-12-22T12:10:25.703Z,36.90
2022-12-22T12:13:27.472Z,38.22
2022-12-22T12:16:20.181Z,42.95
2022-12-22T12:19:14.441Z,42.03
2022-12-22T12:21:52.765Z,39.03
2022-12-22T12:24:25.849Z,38.92
2022-12-22T12:27:32.087Z,35.70
2022-12-22T12:30:37.645Z,41.85
2022-12-22T12:33:08.747Z,34.42
2022-12-22T12:36:02.947Z,32.92
2022-12-22T12:41:33.540Z,36.47
2022-12-22T12:44:02.620Z,39.50
2022-12-22T12:46:51.737Z,39.65
2022-12-22T12:49:58.770Z,34.30
2022-12-22T12:52:40.547Z,34.22
2022-12-22T12:55:33.154Z,35.72
2022-12-22T12:58:03.519Z,38.13
2022-12-22T13:00:35.021Z,41.00
2022-12-22T13:03:04.151Z,37.60
2022-12-22T13:05:51.794Z,39.95
2022-12-22T13:08:24.396Z,36.78
2022-12-22T13:10:54.179Z,42.05
2022-12-22T13:13:26.564Z,42.33
2022-12-22T13:16:02.782Z,38.78
2022-12-22T13:18:29.888Z,35.08
2022-12-22T13:21:18.615Z,39.15
2022-12-22T13:24:24.096Z,39.97
2022-12-22T13:26:55.307Z,43.90
2022-12-22T13:29:22.122Z,37.83
2022-12-22T13:31:53.208Z,42.55
2022-12-22T13:34:22.915Z,40.53
2022-12-22T13:36:51.128Z,46.22
2022-12-22T13:39:17.878Z,42.50
2022-12-22T13:41:48.627Z,43.05
2022-12-22T13:44:33.824Z,46.15
2022-12-22T13:47:06.404Z,48.85
2022-12-22T13:50:07.056Z,51.75
2022-12-22T13:52:23.713Z,44.35
2022-12-22T13:54:50.607Z,39.08
2022-12-22T13:57:20.541Z,43.85
2022-12-22T13:59:50.490Z,45.10
2022-12-22T14:02:20.033Z,46.92
2022-12-22T14:05:07.369Z,41.53
2022-12-22T14:07:34.178Z,44.55
2022-12-22T14:10:01.129Z,43.33
2022-12-22T14:12:41.183Z,39.38
2022-12-22T14:15:17.625Z,38.95
2022-12-22T14:17:52.273Z,40.70
2022-12-22T14:20:27.050Z,36.42
2022-12-22T14:22:59.443Z,44.42
2022-12-22T14:25:32.098Z,42.53
2022-12-22T14:27:59.615Z,38.78
2022-12-22T14:30:42.230Z,40.67
2022-12-22T14:33:38.642Z,40.45
2022-12-22T14:36:17.347Z,34.97
2022-12-22T14:38:50.016Z,43.20
2022-12-22T14:41:42.955Z,39.15
2022-12-22T14:44:14.325Z,42.30
2022-12-22T14:46:42.979Z,40.13
2022-12-22T14:49:19.076Z,40.08
2022-12-22T14:52:05.869Z,41.85
2022-12-22T14:54:32.796Z,37.17
2022-12-22T14:57:10.005Z,44.70
2022-12-22T14:59:42.008Z,45.72
2022-12-22T15:02:34.924Z,39.13
2022-12-22T15:05:24.282Z,48.88
2022-12-22T15:08:09.903Z,50.50
2022-12-22T15:10:44.700Z,48.20
2022-12-22T15:13:24.299Z,40.53
2022-12-22T15:15:51.936Z,34.20
2022-12-22T15:18:26.785Z,46.40
2022-12-22T15:20:55.147Z,42.95
2022-12-22T15:23:22.435Z,44.42
2022-12-22T15:25:49.148Z,37.15
2022-12-22T15:28:16.090Z,36.13
2022-12-22T15:30:43.287Z,38.42
2022-12-22T15:33:13.723Z,38.70
2022-12-22T15:35:41.289Z,37.25
2022-12-22T15:38:16.357Z,39.75
2022-12-22T15:40:43.526Z,39.45
2022-12-22T15:43:28.703Z,36.70
2022-12-22T15:45:58.693Z,37.00
2022-12-22T15:48:29.494Z,31.25
2022-12-22T15:50:57.108Z,32.75
2022-12-22T15:53:24.075Z,42.80
2022-12-22T15:55:53.491Z,33.00
2022-12-22T15:58:26.272Z,31.88
2022-12-22T16:00:53.116Z,34.67
2022-12-22T16:03:20.153Z,33.55
2022-12-22T16:05:46.982Z,33.38
2022-12-22T16:08:20.524Z,35.03
2022-12-22T16:10:51.420Z,30.58
2022-12-22T16:13:22.513Z,35.53
2022-12-22T16:15:53.731Z,31.67
2022-12-22T16:18:29.558Z,29.08
2022-12-22T16:21:04.684Z,28.05
2022-12-22T16:23:31.454Z,31.23
2022-12-22T16:26:02.090Z,27.55
2022-12-22T16:28:30.215Z,25.63
2022-12-22T16:30:57.308Z,29.38
2022-12-22T16:33:24.038Z,27.20
2022-12-22T16:35:56.055Z,35.80
2022-12-22T16:38:22.926Z,26.88
2022-12-22T16:40:53.159Z,27.33
2022-12-22T16:46:17.739Z,28.20
2022-12-22T16:48:55.563Z,32.65
2022-12-22T16:51:28.232Z,32.95
2022-12-22T16:53:55.423Z,34.28
2022-12-22T16:56:28.223Z,35.13
2022-12-22T16:58:55.270Z,37.63
2022-12-22T17:01:40.092Z,35.65
2022-12-22T17:04:23.985Z,41.00
2022-12-22T17:06:55.717Z,31.00
2022-12-22T17:09:34.505Z,37.03
2022-12-22T17:12:01.812Z,32.97
2022-12-22T17:14:39.908Z,32.60
2022-12-22T17:17:19.311Z,29.98
2022-12-22T17:19:50.109Z,28.70
2022-12-22T17:22:29.744Z,26.00
2022-12-22T17:25:02.224Z,26.73
2022-12-22T17:27:32.668Z,26.52
2022-12-22T17:30:05.858Z,22.52
2022-12-22T17:32:32.836Z,31.20
2022-12-22T17:35:05.956Z,31.08
2022-12-22T17:37:33.753Z,23.65
2022-12-22T17:40:02.735Z,26.67
2022-12-22T17:42:32.038Z,25.05
2022-12-22T17:44:58.965Z,28.87
2022-12-22T17:47:33.391Z,23.58
2022-12-22T17:50:03.846Z,26.33
2022-12-22T17:52:30.750Z,27.20
2022-12-22T17:54:57.748Z,29.90
2022-12-22T17:57:33.082Z,25.48
2022-12-22T18:00:01.266Z,28.02
2022-12-22T18:02:29.713Z,30.05
2022-12-22T18:04:56.708Z,25.48
2022-12-22T18:07:25.133Z,31.25
2022-12-22T18:09:59.097Z,24.20
2022-12-22T18:12:26.180Z,27.70
2022-12-22T18:14:53.160Z,29.15
2022-12-22T18:17:23.353Z,25.88
2022-12-22T18:22:25.815Z,25.77
2022-12-22T18:24:54.634Z,27.70
2022-12-22T18:27:23.116Z,27.33
2022-12-22T18:29:50.216Z,25.75
2022-12-22T18:32:26.292Z,24.98
2022-12-22T18:34:54.413Z,31.48
2022-12-22T18:37:21.250Z,24.45
2022-12-22T18:39:48.065Z,23.33
2022-12-22T18:42:23.007Z,21.52
2022-12-22T18:44:51.085Z,28.58
2022-12-22T18:47:18.485Z,24.75
2022-12-22T18:49:45.863Z,24.05
2022-12-22T18:52:19.351Z,25.08
2022-12-22T18:54:46.709Z,20.60
2022-12-22T18:57:16.223Z,21.23
2022-12-22T18:59:43.912Z,24.27
2022-12-22T19:02:27.219Z,19.00
2022-12-22T19:04:54.958Z,21.30
2022-12-22T19:07:25.488Z,25.13
2022-12-22T19:09:52.509Z,21.45
2022-12-22T19:12:23.423Z,22.23
2022-12-22T19:14:58.637Z,17.33
2022-12-22T19:17:29.748Z,18.45
2022-12-22T19:19:57.744Z,18.23
2022-12-22T19:22:24.845Z,22.73
2022-12-22T19:24:52.316Z,25.70
2022-12-22T19:27:26.095Z,23.52
2022-12-22T19:30:04.055Z,23.08
2022-12-22T19:32:39.671Z,21.70
2022-12-22T19:35:33.854Z,19.30
2022-12-22T19:38:00.726Z,20.98
2022-12-22T19:40:33.678Z,22.20
2022-12-22T19:43:00.701Z,22.52
2022-12-22T19:45:30.728Z,17.73
2022-12-22T19:47:58.171Z,19.02
2022-12-22T19:50:28.416Z,16.92
2022-12-22T19:55:28.594Z,14.73
2022-12-22T19:57:56.398Z,18.52
2022-12-22T20:00:26.045Z,18.67
2022-12-22T20:02:56.196Z,15.55
2022-12-22T20:07:56.347Z,16.50
2022-12-22T20:10:24.739Z,16.10
2022-12-22T20:12:54.327Z,17.75
2022-12-22T20:15:30.608Z,17.27
2022-12-22T20:17:58.233Z,15.55
2022-12-22T20:20:36.672Z,15.93
2022-12-22T20:23:10.673Z,16.02
2022-12-22T20:25:43.155Z,16.80
2022-12-22T20:28:25.707Z,17.98
2022-12-22T20:30:53.574Z,16.52
2022-12-22T20:33:22.532Z,13.98
2022-12-22T20:35:51.579Z,14.38
2022-12-22T20:38:29.906Z,16.48
2022-12-22T20:40:56.883Z,14.10
2022-12-22T20:43:26.067Z,14.43
2022-12-22T20:45:57.017Z,14.47
2022-12-22T20:48:30.448Z,15.45
2022-12-22T20:50:57.705Z,15.93
2022-12-22T20:53:24.736Z,14.75
2022-12-22T20:55:52.409Z,17.08
2022-12-22T20:58:23.906Z,16.80
2022-12-22T21:00:53.180Z,23.70
2022-12-22T21:03:20.064Z,12.90
2022-12-22T21:05:48.084Z,13.52
2022-12-22T21:08:26.388Z,13.13
2022-12-22T21:10:54.859Z,12.93
2022-12-22T21:13:22.398Z,18.42
2022-12-22T21:15:51.984Z,22.92
2022-12-22T21:18:23.267Z,20.13
2022-12-22T21:20:51.328Z,19.02
2022-12-22T21:23:18.113Z,22.75
2022-12-22T21:25:48.835Z,21.30
2022-12-22T21:28:28.330Z,19.50
2022-12-22T21:30:55.183Z,24.38
2022-12-22T21:33:23.599Z,23.33
2022-12-22T21:35:51.523Z,24.73
2022-12-22T21:38:20.532Z,22.83
2022-12-22T21:40:47.428Z,17.30
2022-12-22T21:43:15.702Z,19.77
2022-12-22T21:45:45.924Z,22.08
2022-12-22T21:48:16.589Z,26.17
2022-12-22T21:50:43.491Z,28.00
2022-12-22T21:53:10.339Z,20.63
2022-12-22T21:55:39.555Z,26.45
2022-12-22T21:58:10.178Z,18.20
2022-12-22T22:00:41.408Z,23.13
2022-12-22T22:03:08.360Z,21.42
2022-12-22T22:05:39.629Z,19.98
2022-12-22T22:08:09.123Z,21.77
2022-12-22T22:10:43.848Z,24.77
2022-12-22T22:13:15.617Z,22.33
2022-12-22T22:15:43.193Z,20.08
2022-12-22T22:18:20.828Z,19.58
2022-12-22T22:20:48.100Z,22.23
2022-12-22T22:23:15.198Z,20.75
2022-12-22T22:25:42.192Z,19.88
2022-12-22T22:28:11.698Z,15.95
2022-12-22T22:30:44.553Z,16.42
2022-12-22T22:33:11.500Z,17.02
2022-12-22T22:35:41.665Z,16.85
2022-12-22T22:40:50.681Z,17.27
2022-12-22T22:43:17.462Z,19.73
2022-12-22T22:45:44.298Z,17.50
2022-12-22T22:48:19.806Z,14.45
2022-12-22T22:50:46.612Z,16.38
2022-12-22T22:53:14.919Z,16.58
2022-12-22T22:55:41.908Z,16.38
2022-12-22T22:58:11.655Z,16.70
2022-12-22T23:00:39.298Z,20.05
2022-12-22T23:03:06.650Z,16.10
2022-12-22T23:05:33.766Z,17.02
2022-12-22T23:08:00.528Z,16.70
2022-12-22T23:10:27.371Z,16.25
2022-12-22T23:12:55.071Z,14.95
2022-12-22T23:15:21.936Z,17.98
2022-12-22T23:17:51.267Z,16.63
2022-12-22T23:20:18.122Z,16.00
2022-12-22T23:22:44.860Z,16.33
2022-12-22T23:25:11.648Z,16.20
2022-12-22T23:27:38.460Z,18.73
2022-12-22T23:30:05.765Z,19.02
2022-12-22T23:32:32.619Z,17.48
2022-12-22T23:34:59.447Z,23.80
2022-12-22T23:37:26.599Z,16.35
2022-12-22T23:39:53.370Z,21.05
2022-12-22T23:42:20.216Z,19.45
2022-12-22T23:44:48.374Z,16.05
2022-12-22T23:47:15.101Z,15.43
2022-12-22T23:49:41.911Z,31.40
2022-12-22T23:52:08.668Z,21.40
2022-12-22T23:54:35.480Z,14.32
2022-12-22T23:57:02.321Z,18.38
2022-12-22T23:59:29.184Z,13.45
